Time;durP1;ratioP1;P1;durP2;ratioP2;P2;SDS_P1;SDS_P2;PMS_P1;PMS_P2;Temp;Humidity;BMP_temperature;BMP_pressure;BME280_temperature;BME280_humidity;BME280_pressure;Samples;Min_cycle;Max_cycle;Signal;HPM_P1;HPM_P2
2022/01/01 00:02:11;;;;;;;73.25;32.78;;;12.30;99.90;;;;;;5031130;28;20041;-65
2022/01/01 00:04:37;;;;;;;72.18;33.90;;;12.20;99.90;;;;;;5031497;28;20397;-65
2022/01/01 00:07:03;;;;;;;78.93;36.50;;;12.20;99.90;;;;;;5031462;28;20465;-65
2022/01/01 00:09:28;;;;;;;66.85;30.90;;;12.20;99.90;;;;;;5031159;28;20503;-65
2022/01/01 00:11:54;;;;;;;92.30;44.65;;;12.20;99.90;;;;;;5031542;28;20041;-65
2022/01/01 00:14:19;;;;;;;102.55;50.20;;;12.20;99.90;;;;;;5030114;28;20041;-65
2022/01/01 00:16:45;;;;;;;95.93;45.38;;;12.20;99.90;;;;;;5031390;28;20033;-65
2022/01/01 00:19:11;;;;;;;100.93;49.97;;;12.20;99.90;;;;;;5030181;28;20492;-65
2022/01/01 00:21:36;;;;;;;100.53;50.38;;;12.20;99.90;;;;;;5031141;28;20628;-65
2022/01/01 00:24:02;;;;;;;89.65;45.10;;;12.20;99.90;;;;;;5030713;28;20492;-65
2022/01/01 00:26:27;;;;;;;102.20;47.20;;;12.10;99.90;;;;;;5031361;28;20551;-65
2022/01/01 00:28:53;;;;;;;87.65;46.72;;;12.10;99.90;;;;;;5031224;28;20045;-65
2022/01/01 00:31:18;;;;;;;85.50;43.53;;;12.10;99.90;;;;;;5031068;28;20072;-65
2022/01/01 00:33:44;;;;;;;85.47;41.13;;;12.10;99.90;;;;;;5030753;28;20049;-65
2022/01/01 00:36:10;;;;;;;84.80;42.50;;;12.10;99.90;;;;;;5031018;28;20049;-65
2022/01/01 00:38:35;;;;;;;89.07;46.35;;;12.00;99.90;;;;;;5030624;28;20108;-65
2022/01/01 00:41:01;;;;;;;92.95;46.42;;;11.90;99.90;;;;;;5030529;28;20098;-65
2022/01/01 00:43:26;;;;;;;89.68;43.22;;;11.90;99.90;;;;;;5030698;28;20048;-65
2022/01/01 00:45:52;;;;;;;96.85;45.95;;;11.90;99.90;;;;;;5029818;28;20042;-65
2022/01/01 00:48:18;;;;;;;92.65;46.92;;;12.00;99.90;;;;;;5030725;28;20402;-65
2022/01/01 00:50:43;;;;;;;92.57;48.03;;;12.00;99.90;;;;;;5030427;28;20034;-65
2022/01/01 00:53:09;;;;;;;97.38;49.58;;;12.00;99.90;;;;;;5030339;28;20041;-65
2022/01/01 00:55:35;;;;;;;92.90;48.13;;;12.00;99.90;;;;;;5029324;28;20049;-65
2022/01/01 00:58:00;;;;;;;99.85;47.35;;;12.00;99.90;;;;;;5030839;28;20037;-65
2022/01/01 01:00:26;;;;;;;88.82;46.17;;;12.00;99.90;;;;;;5030448;28;20398;-65
2022/01/01 01:02:51;;;;;;;88.20;46.42;;;12.00;99.90;;;;;;5028942;28;20076;-65
2022/01/01 01:05:17;;;;;;;88.10;45.25;;;12.00;99.90;;;;;;5030414;28;20076;-65
2022/01/01 01:07:43;;;;;;;90.85;44.20;;;12.00;99.90;;;;;;5030092;28;20068;-65
2022/01/01 01:10:09;;;;;;;88.40;46.90;;;11.90;99.90;;;;;;5028950;28;20107;-65
2022/01/01 01:12:42;;;;;;;99.30;48.60;;;11.90;99.90;;;;;;5028063;28;20462;-65
2022/01/01 01:15:11;;;;;;;103.95;50.97;;;11.90;99.90;;;;;;5030485;28;20038;-65
2022/01/01 01:17:36;;;;;;;96.85;49.45;;;12.00;99.90;;;;;;5030016;28;20417;-65
2022/01/01 01:20:04;;;;;;;102.80;52.40;;;12.00;99.90;;;;;;5030138;28;20029;-65
2022/01/01 01:22:30;;;;;;;100.53;50.72;;;12.00;99.90;;;;;;5029695;28;20102;-65
2022/01/01 01:24:56;;;;;;;102.10;51.50;;;12.00;99.90;;;;;;5029927;28;20447;-65
2022/01/01 01:27:23;;;;;;;106.00;50.03;;;11.90;99.90;;;;;;5012134;28;20030;-65
2022/01/01 01:29:49;;;;;;;99.40;49.90;;;11.90;99.90;;;;;;5029982;28;20044;-65
2022/01/01 01:32:15;;;;;;;98.13;47.95;;;12.00;99.90;;;;;;5029814;28;20041;-65
2022/01/01 01:34:41;;;;;;;100.80;49.50;;;12.00;99.90;;;;;;5029865;28;20033;-65
2022/01/01 01:37:06;;;;;;;95.50;48.95;;;12.00;99.90;;;;;;5029498;28;20034;-65
2022/01/01 01:39:32;;;;;;;105.55;48.22;;;12.00;99.90;;;;;;5029838;28;20048;-65
2022/01/01 01:41:57;;;;;;;93.60;46.08;;;12.00;99.90;;;;;;5029731;28;20038;-65
2022/01/01 01:44:32;;;;;;;96.57;46.33;;;12.00;99.90;;;;;;5029735;28;20398;-65
2022/01/01 01:47:00;;;;;;;88.88;44.38;;;12.00;99.90;;;;;;5029425;28;20453;-65
2022/01/01 01:49:26;;;;;;;101.40;46.22;;;12.00;99.90;;;;;;5029348;28;20096;-65
2022/01/01 01:51:52;;;;;;;93.47;47.28;;;12.10;99.90;;;;;;5028267;28;20041;-65
2022/01/01 01:54:18;;;;;;;94.45;47.03;;;12.10;99.90;;;;;;5029368;28;20128;-65
2022/01/01 01:56:45;;;;;;;98.63;48.15;;;12.10;99.90;;;;;;5029457;28;20046;-65
2022/01/01 01:59:11;;;;;;;94.65;46.85;;;12.00;99.90;;;;;;5029403;28;20493;-65
2022/01/01 02:01:37;;;;;;;99.43;44.20;;;12.00;99.90;;;;;;5029330;28;20506;-65
2022/01/01 02:04:03;;;;;;;95.68;46.65;;;12.10;99.90;;;;;;5028999;28;20053;-65
2022/01/01 02:06:29;;;;;;;90.05;46.75;;;12.10;99.90;;;;;;5029427;28;20044;-65
2022/01/01 02:08:55;;;;;;;94.07;43.85;;;12.00;99.90;;;;;;5029267;28;20044;-65
2022/01/01 02:11:22;;;;;;;95.82;45.25;;;11.90;99.90;;;;;;5027766;28;20037;-65
2022/01/01 02:18:51;;;;;;;93.20;45.10;;;11.80;99.90;;;;;;5029219;28;20140;-65
2022/01/01 02:21:18;;;;;;;95.97;44.97;;;11.80;99.90;;;;;;5027710;28;20124;-65
2022/01/01 02:23:46;;;;;;;91.18;44.90;;;11.80;99.90;;;;;;5028808;28;20498;-65
2022/01/01 02:26:15;;;;;;;104.35;43.97;;;11.80;99.90;;;;;;5029246;28;20038;-65
2022/01/01 02:28:42;;;;;;;96.70;45.33;;;11.70;99.90;;;;;;5027720;28;20049;-65
2022/01/01 02:31:08;;;;;;;101.32;45.90;;;11.70;99.90;;;;;;5028780;28;20033;-65
2022/01/01 02:33:33;;;;;;;95.22;45.85;;;11.70;99.90;;;;;;5027499;28;20048;-65
2022/01/01 02:35:59;;;;;;;103.22;47.00;;;11.70;99.90;;;;;;5029121;28;20417;-65
2022/01/01 02:38:25;;;;;;;105.20;50.47;;;11.70;99.90;;;;;;5029033;28;20401;-65
2022/01/01 02:40:50;;;;;;;102.22;47.10;;;11.80;99.90;;;;;;5028851;28;20122;-65
2022/01/01 02:43:17;;;;;;;103.63;48.70;;;11.80;99.90;;;;;;5028450;28;20037;-65
2022/01/01 02:45:43;;;;;;;110.07;50.17;;;11.80;99.90;;;;;;5028683;28;20100;-65
2022/01/01 02:48:12;;;;;;;98.65;47.22;;;11.90;99.90;;;;;;5029134;28;20583;-65
2022/01/01 02:50:37;;;;;;;108.38;49.90;;;11.90;99.90;;;;;;5028502;28;20509;-65
2022/01/01 02:53:10;;;;;;;98.15;49.40;;;11.90;99.90;;;;;;5028713;28;20094;-65
2022/01/01 02:55:35;;;;;;;108.65;50.75;;;11.90;99.90;;;;;;5028832;28;20045;-65
2022/01/01 02:58:01;;;;;;;110.18;51.35;;;12.00;99.90;;;;;;5028904;28;20132;-65
2022/01/01 03:00:27;;;;;;;108.15;52.58;;;12.00;99.90;;;;;;5028485;28;20045;-65
2022/01/01 03:02:52;;;;;;;105.30;50.65;;;12.00;99.90;;;;;;5027158;28;20040;-65
2022/01/01 03:05:18;;;;;;;110.90;51.30;;;12.00;99.90;;;;;;5028679;28;20038;-65
2022/01/01 03:07:43;;;;;;;105.18;50.83;;;12.00;99.90;;;;;;5028748;28;20045;-65
2022/01/01 03:10:09;;;;;;;107.95;51.35;;;12.00;99.90;;;;;;5028657;28;20124;-65
2022/01/01 03:12:35;;;;;;;107.75;51.35;;;12.00;99.90;;;;;;5028334;28;20059;-65
2022/01/01 03:15:00;;;;;;;108.20;52.53;;;12.00;99.90;;;;;;5028361;28;20042;-65
2022/01/01 03:17:26;;;;;;;106.00;51.45;;;11.90;99.90;;;;;;5028708;28;20041;-65
2022/01/01 03:19:51;;;;;;;112.10;52.75;;;11.90;99.90;;;;;;5027449;28;20045;-65
2022/01/01 03:22:17;;;;;;;101.78;51.88;;;11.90;99.90;;;;;;5028376;28;20742;-65
2022/01/01 03:24:42;;;;;;;104.10;51.63;;;11.90;99.90;;;;;;5028299;28;20045;-65
2022/01/01 03:27:08;;;;;;;101.53;52.17;;;12.00;99.90;;;;;;5028373;28;20560;-65
2022/01/01 03:29:33;;;;;;;107.35;53.13;;;11.90;99.90;;;;;;5028354;28;20103;-65
2022/01/01 03:31:59;;;;;;;117.15;52.85;;;11.90;99.90;;;;;;5028386;28;20080;-65
2022/01/01 03:34:25;;;;;;;106.65;51.75;;;11.90;99.90;;;;;;5027195;28;20045;-65
2022/01/01 03:36:51;;;;;;;107.00;53.38;;;12.00;99.90;;;;;;5030294;28;20041;-65
2022/01/01 03:39:16;;;;;;;107.53;52.60;;;11.90;99.90;;;;;;5032113;28;20037;-65
2022/01/01 03:41:42;;;;;;;104.53;50.40;;;12.00;99.90;;;;;;5019093;28;20459;-65
2022/01/01 03:44:07;;;;;;;102.15;52.55;;;11.90;99.90;;;;;;5012523;28;20049;-65
2022/01/01 03:46:33;;;;;;;110.65;53.85;;;11.90;99.90;;;;;;5024788;28;20171;-65
2022/01/01 03:48:58;;;;;;;100.10;49.25;;;11.90;99.90;;;;;;5032795;28;20112;-65
2022/01/01 03:51:24;;;;;;;106.90;52.25;;;11.90;99.90;;;;;;5021500;28;20117;-65
2022/01/01 03:53:50;;;;;;;100.65;50.17;;;11.90;99.90;;;;;;5012650;28;20069;-65
2022/01/01 03:56:15;;;;;;;102.70;49.70;;;11.90;99.90;;;;;;5022022;28;20497;-65
2022/01/01 03:58:41;;;;;;;99.00;50.17;;;11.90;99.90;;;;;;5032182;28;20068;-65
2022/01/01 04:01:07;;;;;;;103.50;49.90;;;11.90;99.90;;;;;;5032668;28;20061;-65
2022/01/01 04:03:33;;;;;;;95.30;50.45;;;11.90;99.90;;;;;;5028972;28;20034;-65
2022/01/01 04:05:58;;;;;;;104.25;50.30;;;12.00;99.90;;;;;;5020274;28;20083;-65
2022/01/01 04:08:24;;;;;;;99.72;48.75;;;12.00;99.90;;;;;;5012796;28;20045;-65
2022/01/01 04:10:49;;;;;;;97.60;47.38;;;12.00;99.90;;;;;;5012435;28;20037;-65
2022/01/01 04:13:15;;;;;;;94.60;47.50;;;12.00;99.90;;;;;;5012203;28;20056;-65
2022/01/01 04:15:41;;;;;;;92.50;48.05;;;12.00;99.90;;;;;;5012491;28;20038;-65
2022/01/01 04:18:12;;;;;;;100.75;48.47;;;12.00;99.90;;;;;;5024422;28;20045;-65
2022/01/01 04:20:39;;;;;;;99.47;46.65;;;11.90;99.90;;;;;;5022522;28;20045;-65
2022/01/01 04:23:09;;;;;;;99.68;46.97;;;11.90;99.90;;;;;;5012429;28;20042;-65
2022/01/01 04:25:36;;;;;;;96.68;48.67;;;11.90;99.90;;;;;;5012147;28;20096;-65
2022/01/01 04:28:02;;;;;;;97.75;48.25;;;12.00;99.90;;;;;;5020234;28;20564;-65
2022/01/01 04:30:31;;;;;;;95.68;47.70;;;11.90;99.90;;;;;;5026531;28;20064;-65
2022/01/01 04:32:57;;;;;;;104.57;48.58;;;12.00;99.90;;;;;;5029800;28;20056;-65
2022/01/01 04:35:23;;;;;;;100.43;48.75;;;12.00;99.90;;;;;;5031050;28;20033;-65
2022/01/01 04:37:48;;;;;;;102.15;48.55;;;12.00;99.90;;;;;;5031083;28;20038;-65
2022/01/01 04:40:14;;;;;;;99.15;47.47;;;12.00;99.90;;;;;;5030889;28;20092;-65
2022/01/01 04:42:40;;;;;;;97.50;49.00;;;12.00;99.90;;;;;;5030886;28;20033;-65
2022/01/01 04:45:05;;;;;;;100.38;46.90;;;12.00;99.90;;;;;;5030156;28;20068;-65
2022/01/01 04:47:31;;;;;;;96.47;48.28;;;12.00;99.90;;;;;;5030543;28;20041;-65
2022/01/01 04:49:57;;;;;;;93.18;48.33;;;12.00;99.90;;;;;;5031456;28;20041;-65
2022/01/01 04:52:22;;;;;;;103.60;47.60;;;12.00;99.90;;;;;;5037417;23;20132;-65
2022/01/01 04:54:48;;;;;;;96.53;46.75;;;12.00;99.90;;;;;;5031367;28;20120;-65
2022/01/01 04:57:14;;;;;;;93.88;46.45;;;12.00;99.90;;;;;;5031525;28;20091;-65
2022/01/01 04:59:41;;;;;;;91.97;47.70;;;12.00;99.90;;;;;;5031503;28;20030;-65
2022/01/01 05:02:07;;;;;;;96.30;47.55;;;12.00;99.90;;;;;;5031404;28;20037;-64
2022/01/01 05:04:33;;;;;;;89.20;45.55;;;12.00;99.90;;;;;;5031098;28;20661;-65
2022/01/01 05:06:59;;;;;;;100.63;46.65;;;12.00;99.90;;;;;;5030134;28;20091;-65
2022/01/01 05:09:27;;;;;;;98.57;46.33;;;11.90;99.90;;;;;;5030958;28;20095;-65
2022/01/01 05:11:53;;;;;;;96.93;46.33;;;11.90;99.90;;;;;;5031188;28;20044;-65
2022/01/01 05:14:19;;;;;;;94.65;45.45;;;11.90;99.90;;;;;;5029783;28;20045;-65
2022/01/01 05:16:45;;;;;;;91.22;43.13;;;12.00;99.90;;;;;;5031002;28;20033;-65
2022/01/01 05:19:11;;;;;;;90.85;43.47;;;12.00;99.90;;;;;;5029930;28;20041;-64
2022/01/01 05:21:36;;;;;;;93.93;43.85;;;12.00;99.90;;;;;;5030760;28;20430;-65
2022/01/01 05:24:05;;;;;;;94.57;43.30;;;12.00;99.90;;;;;;5029170;28;20045;-64
2022/01/01 05:26:31;;;;;;;89.53;41.13;;;11.90;99.90;;;;;;5030918;28;20489;-65
2022/01/01 05:28:57;;;;;;;88.38;40.15;;;12.00;99.90;;;;;;5030905;28;20041;-65
2022/01/01 05:31:22;;;;;;;75.45;37.05;;;12.00;99.90;;;;;;5030841;28;20053;-65
2022/01/01 05:33:52;;;;;;;78.18;37.55;;;12.00;99.90;;;;;;5030429;28;20125;-65
2022/01/01 05:36:18;;;;;;;84.80;36.92;;;12.00;99.90;;;;;;5030821;28;20041;-65
2022/01/01 05:38:45;;;;;;;82.97;36.92;;;12.10;99.90;;;;;;5030499;28;20069;-65
2022/01/01 05:41:12;;;;;;;77.85;37.00;;;12.10;99.90;;;;;;5030704;28;20088;-65
2022/01/01 05:43:37;;;;;;;76.30;33.47;;;12.10;99.90;;;;;;5030272;28;20038;-65
2022/01/01 05:46:03;;;;;;;74.88;35.55;;;12.10;99.90;;;;;;5030511;28;20051;-65
2022/01/01 05:48:29;;;;;;;71.70;32.97;;;12.10;99.90;;;;;;5030457;28;20631;-65
2022/01/01 05:50:55;;;;;;;75.35;32.10;;;12.10;99.90;;;;;;5030366;28;20068;-65
2022/01/01 05:53:20;;;;;;;66.53;28.67;;;12.10;99.90;;;;;;5029739;28;20088;-65
2022/01/01 05:55:47;;;;;;;65.25;29.85;;;12.10;99.90;;;;;;5030417;28;20045;-64
2022/01/01 05:58:13;;;;;;;57.42;25.35;;;12.10;99.90;;;;;;5030403;28;20378;-64
2022/01/01 06:00:39;;;;;;;56.55;24.50;;;12.10;99.90;;;;;;5029972;28;20535;-64
2022/01/01 06:03:05;;;;;;;52.88;23.17;;;12.10;99.90;;;;;;5029826;28;20064;-64
2022/01/01 06:05:31;;;;;;;57.15;23.58;;;12.10;99.90;;;;;;5030114;28;20443;-64
2022/01/01 06:07:58;;;;;;;54.05;23.30;;;12.10;99.90;;;;;;5030014;28;20049;-65
2022/01/01 06:10:25;;;;;;;47.25;20.38;;;12.20;99.90;;;;;;5030201;28;20120;-64
2022/01/01 06:12:51;;;;;;;57.38;20.75;;;12.10;99.90;;;;;;5029920;28;20041;-65
2022/01/01 06:15:17;;;;;;;47.38;20.67;;;12.20;99.90;;;;;;5029975;28;20421;-64
2022/01/01 06:17:43;;;;;;;52.58;20.90;;;12.20;99.90;;;;;;5030012;28;20048;-64
2022/01/01 06:20:09;;;;;;;47.70;21.05;;;12.20;99.90;;;;;;5030111;28;20033;-64
2022/01/01 06:22:35;;;;;;;47.92;20.13;;;12.20;99.90;;;;;;5027121;28;20038;-65
2022/01/01 06:25:00;;;;;;;45.28;20.60;;;12.20;99.90;;;;;;5027520;28;20056;-65
2022/01/01 06:27:26;;;;;;;61.90;22.88;;;12.20;99.90;;;;;;5027496;28;20489;-65
2022/01/01 06:29:51;;;;;;;53.17;21.40;;;12.10;99.90;;;;;;5026291;28;20076;-65
2022/01/01 06:32:17;;;;;;;51.08;20.25;;;12.20;99.90;;;;;;5026201;28;20038;-63
2022/01/01 06:34:43;;;;;;;48.22;20.45;;;12.20;99.90;;;;;;5027051;28;20042;-64
2022/01/01 06:37:08;;;;;;;54.70;20.27;;;12.20;99.90;;;;;;5027023;28;20390;-63
2022/01/01 06:39:34;;;;;;;49.38;21.13;;;12.20;99.90;;;;;;5027401;28;20183;-64
2022/01/01 06:42:00;;;;;;;49.72;19.55;;;12.20;99.90;;;;;;5027314;28;20608;-63
2022/01/01 06:44:26;;;;;;;49.30;19.25;;;12.20;99.90;;;;;;5027095;28;20615;-64
2022/01/01 06:46:53;;;;;;;53.60;19.83;;;12.20;99.90;;;;;;5026172;28;20502;-64
2022/01/01 06:49:18;;;;;;;53.25;20.55;;;12.20;99.90;;;;;;5027289;28;20689;-64
2022/01/01 06:51:44;;;;;;;56.75;20.10;;;12.10;99.90;;;;;;5026986;28;20037;-64
2022/01/01 06:54:09;;;;;;;51.92;19.92;;;12.10;99.90;;;;;;5027001;28;20124;-64
2022/01/01 06:56:35;;;;;;;55.05;21.15;;;12.10;99.90;;;;;;5027099;28;20049;-64
2022/01/01 06:59:01;;;;;;;55.10;23.30;;;12.00;99.90;;;;;;5027154;28;20045;-64
2022/01/01 07:01:26;;;;;;;53.97;21.45;;;12.00;99.90;;;;;;5025886;28;20045;-64
2022/01/01 07:03:52;;;;;;;48.00;20.67;;;12.00;99.90;;;;;;5026732;28;20053;-64
2022/01/01 07:06:17;;;;;;;57.35;24.33;;;12.00;99.90;;;;;;5026956;28;20046;-64
2022/01/01 07:08:43;;;;;;;54.65;23.48;;;12.00;99.90;;;;;;5027135;28;20037;-65
2022/01/01 07:11:08;;;;;;;63.38;24.85;;;12.00;99.90;;;;;;5027913;28;20041;-64
2022/01/01 07:13:34;;;;;;;57.75;23.88;;;12.00;99.90;;;;;;5030623;28;20087;-64
2022/01/01 07:15:59;;;;;;;64.43;24.10;;;11.90;99.90;;;;;;5030764;28;20057;-64
2022/01/01 07:18:25;;;;;;;66.47;26.08;;;12.00;99.90;;;;;;5030836;28;20046;-64
2022/01/01 07:20:50;;;;;;;65.90;25.08;;;12.00;99.90;;;;;;5030777;28;20492;-64
2022/01/01 07:23:16;;;;;;;56.58;23.13;;;12.00;99.90;;;;;;5029175;28;20673;-64
2022/01/01 07:25:42;;;;;;;60.05;23.92;;;12.00;99.90;;;;;;5029242;28;20049;-65
2022/01/01 07:28:09;;;;;;;57.65;22.67;;;12.00;99.90;;;;;;5030533;28;20033;-64
2022/01/01 07:30:35;;;;;;;60.97;23.98;;;12.00;99.90;;;;;;5030700;28;20121;-63
2022/01/01 07:33:01;;;;;;;66.82;26.05;;;12.00;99.90;;;;;;5030489;28;20073;-64
2022/01/01 07:35:26;;;;;;;61.20;24.77;;;12.00;99.90;;;;;;5030237;28;20052;-64
2022/01/01 07:37:52;;;;;;;60.25;25.92;;;12.00;99.90;;;;;;5030662;28;20045;-64
2022/01/01 07:40:18;;;;;;;60.28;26.23;;;12.00;99.90;;;;;;5029396;28;20052;-64
2022/01/01 07:42:44;;;;;;;58.72;25.52;;;12.00;99.90;;;;;;5030179;28;20187;-64
2022/01/01 07:45:11;;;;;;;66.45;26.90;;;12.00;99.90;;;;;;5030300;28;20585;-65
2022/01/01 07:47:37;;;;;;;64.13;26.25;;;12.00;99.90;;;;;;5030213;28;20130;-64
2022/01/01 07:50:04;;;;;;;62.45;24.23;;;12.10;99.90;;;;;;5030055;28;20107;-64
2022/01/01 07:52:29;;;;;;;57.03;25.35;;;12.10;99.90;;;;;;5032207;28;20109;-64
2022/01/01 07:54:55;;;;;;;62.95;27.73;;;12.10;99.90;;;;;;5032722;28;20612;-64
2022/01/01 07:57:20;;;;;;;60.35;26.98;;;12.10;99.90;;;;;;5032506;28;20048;-65
2022/01/01 07:59:46;;;;;;;67.22;25.98;;;12.10;99.90;;;;;;5032546;28;20390;-64
2022/01/01 08:02:11;;;;;;;65.10;25.83;;;12.10;99.90;;;;;;5032485;28;20077;-64
2022/01/01 08:04:37;;;;;;;70.70;28.63;;;12.20;99.90;;;;;;5032186;28;20103;-65
2022/01/01 08:07:02;;;;;;;61.50;25.45;;;12.20;99.90;;;;;;5032430;28;20081;-65
2022/01/01 08:09:28;;;;;;;66.38;26.98;;;12.20;99.90;;;;;;5032248;28;20124;-64
2022/01/01 08:11:55;;;;;;;65.90;26.83;;;12.20;99.90;;;;;;5032379;28;20033;-64
2022/01/01 08:14:21;;;;;;;68.53;27.63;;;12.20;99.90;;;;;;5032130;28;20048;-65
2022/01/01 08:17:01;;;;;;;62.03;26.38;;;12.20;99.90;;;;;;5032112;28;20030;-66
2022/01/01 08:19:27;;;;;;;64.38;28.23;;;12.30;99.90;;;;;;5032125;28;20050;-66
2022/01/01 08:21:54;;;;;;;72.13;29.15;;;12.20;99.90;;;;;;5030482;28;20046;-65
2022/01/01 08:24:19;;;;;;;76.18;29.23;;;12.30;99.90;;;;;;5031882;28;20038;-67
2022/01/01 08:26:45;;;;;;;67.40;27.55;;;12.30;99.90;;;;;;5030719;28;20068;-66
2022/01/01 08:29:11;;;;;;;66.22;25.85;;;12.30;99.90;;;;;;5031854;28;20063;-64
2022/01/01 08:31:37;;;;;;;61.88;26.42;;;12.30;99.90;;;;;;5031766;28;20088;-64
2022/01/01 08:34:02;;;;;;;64.30;26.20;;;12.30;99.90;;;;;;5031953;28;20037;-65
2022/01/01 08:36:28;;;;;;;59.28;26.02;;;12.30;99.90;;;;;;5031879;28;20092;-64
2022/01/01 08:38:53;;;;;;;61.53;27.42;;;12.30;99.90;;;;;;5030394;28;20076;-65
2022/01/01 08:41:19;;;;;;;65.32;27.50;;;12.30;99.90;;;;;;5031746;28;20044;-64
2022/01/01 08:43:45;;;;;;;59.70;26.25;;;12.40;99.90;;;;;;5031464;28;20125;-64
2022/01/01 08:46:11;;;;;;;65.03;26.00;;;12.40;99.90;;;;;;5031449;28;20045;-64
2022/01/01 08:48:37;;;;;;;66.05;27.77;;;12.40;99.90;;;;;;5031851;28;20042;-66
2022/01/01 08:51:16;;;;;;;55.95;25.40;;;12.50;99.90;;;;;;5030507;28;20041;-67
2022/01/01 08:53:43;;;;;;;59.67;26.95;;;12.50;99.90;;;;;;5029948;28;20132;-66
2022/01/01 08:56:09;;;;;;;55.35;25.85;;;12.50;99.90;;;;;;5030523;28;20041;-66
2022/01/01 08:58:35;;;;;;;61.50;26.27;;;12.60;99.90;;;;;;5029928;28;20045;-66
2022/01/01 09:01:01;;;;;;;52.50;25.45;;;12.60;99.90;;;;;;5031487;28;20099;-66
2022/01/01 09:03:27;;;;;;;57.45;25.73;;;12.60;99.90;;;;;;5031056;28;20481;-66
2022/01/01 09:05:53;;;;;;;55.20;24.80;;;12.60;99.90;;;;;;5031557;28;20052;-66
2022/01/01 09:08:20;;;;;;;56.33;26.55;;;12.60;99.90;;;;;;5031035;28;20053;-66
2022/01/01 09:10:45;;;;;;;60.72;26.10;;;12.60;99.90;;;;;;5030750;28;20048;-66
2022/01/01 09:13:11;;;;;;;61.70;26.67;;;12.70;99.90;;;;;;5028830;28;20076;-67
2022/01/01 09:15:36;;;;;;;52.35;23.95;;;12.70;99.90;;;;;;5030680;28;20037;-67
2022/01/01 09:18:02;;;;;;;56.63;25.90;;;12.70;99.90;;;;;;5025953;28;20041;-66
2022/01/01 09:20:28;;;;;;;53.33;22.55;;;12.70;99.90;;;;;;5017743;28;20100;-66
2022/01/01 09:22:53;;;;;;;44.45;21.77;;;12.80;99.90;;;;;;5020025;28;20148;-68
2022/01/01 09:25:19;;;;;;;42.13;22.48;;;12.80;99.90;;;;;;5018091;28;20033;-66
2022/01/01 09:27:44;;;;;;;48.35;23.05;;;12.80;99.90;;;;;;5020554;28;20138;-68
2022/01/01 09:30:10;;;;;;;42.60;22.95;;;12.90;99.90;;;;;;5017856;28;20558;-66
2022/01/01 09:32:36;;;;;;;49.15;22.45;;;13.00;99.90;;;;;;5018114;28;20037;-66
2022/01/01 09:35:02;;;;;;;36.45;19.13;;;13.00;99.90;;;;;;5019960;28;20041;-67
2022/01/01 09:37:29;;;;;;;43.30;20.13;;;12.90;99.90;;;;;;5018972;28;20036;-67
2022/01/01 09:39:56;;;;;;;38.53;19.58;;;13.00;99.90;;;;;;5018390;28;20030;-67
2022/01/01 09:42:23;;;;;;;27.30;14.82;;;13.00;99.90;;;;;;5014935;28;20092;-67
2022/01/01 09:44:51;;;;;;;35.17;15.43;;;13.00;99.90;;;;;;5012896;28;20037;-64
2022/01/01 09:47:17;;;;;;;32.33;15.73;;;13.10;99.90;;;;;;5019040;28;20045;-65
2022/01/01 09:49:42;;;;;;;35.25;16.38;;;13.10;99.90;;;;;;5018448;28;20048;-65
2022/01/01 09:52:13;;;;;;;30.80;16.02;;;13.10;99.90;;;;;;5018302;28;20421;-65
2022/01/01 09:54:39;;;;;;;30.38;13.70;;;13.20;99.90;;;;;;5020615;28;20544;-65
2022/01/01 09:57:04;;;;;;;30.65;13.40;;;13.20;99.90;;;;;;5014738;28;20045;-65
2022/01/01 09:59:30;;;;;;;28.75;14.00;;;13.30;99.90;;;;;;5016613;28;20031;-65
2022/01/01 10:01:56;;;;;;;27.02;13.52;;;13.40;99.90;;;;;;5020240;28;20029;-65
2022/01/01 10:04:22;;;;;;;30.67;12.68;;;13.40;99.90;;;;;;5016759;28;20042;-66
2022/01/01 10:07:03;;;;;;;26.70;12.60;;;13.50;99.90;;;;;;5017769;28;20037;-65
2022/01/01 10:09:37;;;;;;;29.55;13.65;;;13.50;99.90;;;;;;5019158;28;20446;-65
2022/01/01 10:12:06;;;;;;;30.85;12.65;;;13.50;99.90;;;;;;5018283;28;20069;-65
2022/01/01 10:14:40;;;;;;;23.73;12.63;;;13.50;99.90;;;;;;5017026;28;20040;-65
2022/01/01 10:17:23;;;;;;;25.38;12.63;;;13.50;99.90;;;;;;5017408;28;20494;-65
2022/01/01 10:19:51;;;;;;;28.30;12.05;;;13.50;99.90;;;;;;5019045;28;20088;-65
2022/01/01 10:22:21;;;;;;;26.67;11.63;;;13.50;99.90;;;;;;5023311;28;20047;-66
2022/01/01 10:27:43;;;;;;;25.25;11.00;;;13.40;99.90;;;;;;5018050;28;20034;-67
2022/01/01 10:30:36;;;;;;;24.33;11.60;;;13.40;99.90;;;;;;5016616;28;20482;-66
2022/01/01 10:33:06;;;;;;;23.67;11.30;;;13.40;99.90;;;;;;5019092;28;20057;-66
2022/01/01 10:35:39;;;;;;;24.85;11.13;;;13.30;99.90;;;;;;5016632;28;20505;-65
2022/01/01 10:38:08;;;;;;;25.08;10.80;;;13.30;99.90;;;;;;5016607;28;20049;-67
2022/01/01 10:40:34;;;;;;;24.35;11.35;;;13.30;99.90;;;;;;5018191;28;20125;-66
2022/01/01 10:42:59;;;;;;;19.60;10.50;;;13.30;99.90;;;;;;5018095;28;20847;-65
2022/01/01 10:45:30;;;;;;;21.52;10.25;;;13.30;99.90;;;;;;5021324;28;20096;-65
2022/01/01 10:50:44;;;;;;;21.77;9.60;;;13.40;99.90;;;;;;5023837;28;20124;-66
2022/01/01 10:53:15;;;;;;;21.33;9.88;;;13.30;99.90;;;;;;5022033;28;20044;-66
2022/01/01 10:55:46;;;;;;;17.25;9.73;;;13.30;99.90;;;;;;5023819;28;20037;-66
2022/01/01 10:58:26;;;;;;;22.33;10.23;;;13.30;99.90;;;;;;5021612;28;20510;-66
2022/01/01 11:00:57;;;;;;;21.58;10.05;;;13.30;99.90;;;;;;5022991;28;20042;-66
2022/01/01 11:03:23;;;;;;;23.98;9.52;;;13.30;99.90;;;;;;5021551;28;20050;-66
2022/01/01 11:05:51;;;;;;;18.35;8.90;;;13.40;99.90;;;;;;5021078;28;20042;-66
2022/01/01 11:08:17;;;;;;;17.48;8.98;;;13.40;99.90;;;;;;5022062;28;20099;-66
2022/01/01 11:10:43;;;;;;;19.92;9.00;;;13.30;99.90;;;;;;5020101;28;20096;-65
2022/01/01 11:13:09;;;;;;;21.27;9.60;;;13.40;99.90;;;;;;5020880;28;20045;-65
2022/01/01 11:15:35;;;;;;;22.88;9.27;;;13.40;99.90;;;;;;5021967;28;20124;-67
2022/01/01 11:18:01;;;;;;;21.63;8.93;;;13.30;99.90;;;;;;5021164;28;20152;-65
2022/01/01 11:20:33;;;;;;;17.08;8.20;;;13.30;99.90;;;;;;5023836;28;20046;-64
2022/01/01 11:23:03;;;;;;;22.67;9.20;;;13.30;99.90;;;;;;5021008;28;20053;-64
2022/01/01 11:25:29;;;;;;;18.55;8.85;;;13.30;99.90;;;;;;5022438;28;20037;-64
2022/01/01 11:27:55;;;;;;;14.95;7.63;;;13.30;99.90;;;;;;5022762;28;20141;-64
2022/01/01 11:30:27;;;;;;;20.20;8.88;;;13.30;99.90;;;;;;5019616;28;20061;-64
2022/01/01 11:33:00;;;;;;;18.92;8.13;;;13.30;99.90;;;;;;5027996;23;20564;-64
2022/01/01 11:35:34;;;;;;;26.05;9.10;;;13.30;99.90;;;;;;5033265;28;20698;-63
2022/01/01 11:38:16;;;;;;;18.38;8.18;;;13.40;99.90;;;;;;5032703;28;20595;-63
2022/01/01 11:40:45;;;;;;;17.92;7.97;;;13.40;99.90;;;;;;5029425;28;20041;-64
2022/01/01 11:43:38;;;;;;;16.60;7.85;;;13.40;99.90;;;;;;5022278;28;20065;-64
2022/01/01 11:46:17;;;;;;;17.45;8.55;;;13.40;99.90;;;;;;5010011;28;20034;-64
2022/01/01 11:48:48;;;;;;;15.73;8.57;;;13.30;99.90;;;;;;4999335;28;20034;-64
2022/01/01 11:51:23;;;;;;;19.50;9.63;;;13.30;99.90;;;;;;5001933;28;20498;-63
2022/01/01 11:54:15;;;;;;;16.70;8.32;;;13.40;99.90;;;;;;4992723;28;20053;-64
2022/01/01 11:56:50;;;;;;;18.38;9.02;;;13.40;99.90;;;;;;4992927;28;20146;-64
2022/01/01 11:59:29;;;;;;;18.90;9.43;;;13.40;99.90;;;;;;4993110;28;20069;-64
2022/01/01 12:02:01;;;;;;;20.33;8.55;;;13.40;99.90;;;;;;5003733;28;20038;-63
2022/01/01 12:04:31;;;;;;;19.92;9.35;;;13.40;99.90;;;;;;5012446;28;20037;-64
2022/01/01 12:07:10;;;;;;;18.65;8.75;;;13.50;99.90;;;;;;5013057;28;20166;-64
2022/01/01 12:09:55;;;;;;;16.92;8.57;;;13.50;99.90;;;;;;4995243;28;20050;-64
2022/01/01 12:13:05;;;;;;;17.20;8.82;;;13.50;99.90;;;;;;5012253;28;20140;-63
2022/01/01 12:15:48;;;;;;;15.88;8.70;;;13.50;99.90;;;;;;4987934;28;20112;-64
2022/01/01 12:18:24;;;;;;;17.88;8.48;;;13.50;99.90;;;;;;5012510;28;20057;-65
2022/01/01 12:21:02;;;;;;;16.35;8.68;;;13.60;99.90;;;;;;4994690;28;20092;-65
2022/01/01 12:23:31;;;;;;;18.40;9.02;;;13.50;99.90;;;;;;5012158;28;20121;-64
2022/01/01 12:25:57;;;;;;;15.90;8.57;;;13.60;99.90;;;;;;5012578;28;20045;-64
2022/01/01 12:28:31;;;;;;;19.02;8.20;;;13.60;99.90;;;;;;5012409;28;20044;-65
2022/01/01 12:31:14;;;;;;;15.13;8.60;;;13.50;99.90;;;;;;4978014;28;20049;-65
2022/01/01 12:33:45;;;;;;;17.20;8.38;;;13.50;99.90;;;;;;4994136;28;20084;-65
2022/01/01 12:36:10;;;;;;;14.77;8.30;;;13.50;99.90;;;;;;5012540;28;20045;-65
2022/01/01 12:38:39;;;;;;;17.10;8.95;;;13.50;99.90;;;;;;5012217;28;20387;-65